createdAt,value
2022-09-03T00:01:43.748Z,2.70
2022-09-03T00:06:51.296Z,2.90
2022-09-03T00:12:15.315Z,3.37
2022-09-03T00:17:25.629Z,3.50
2022-09-03T00:22:33.381Z,3.43
2022-09-03T00:27:39.821Z,3.60
2022-09-03T00:32:42.262Z,3.50
2022-09-03T00:37:44.813Z,3.60
2022-09-03T00:43:04.778Z,3.60
2022-09-03T00:48:17.490Z,3.57
2022-09-03T00:53:40.000Z,3.53
2022-09-03T00:59:03.780Z,3.83
2022-09-03T01:04:33.947Z,3.77
2022-09-03T01:09:56.499Z,3.30
2022-09-03T01:15:08.021Z,3.40
2022-09-03T01:20:35.162Z,3.10
2022-09-03T01:26:02.181Z,2.97
2022-09-03T01:31:26.848Z,2.60
2022-09-03T01:36:32.393Z,3.20
2022-09-03T01:42:20.703Z,2.87
2022-09-03T01:47:55.039Z,2.83
2022-09-03T01:53:28.017Z,2.60
2022-09-03T01:58:43.180Z,2.50
2022-09-03T02:03:47.137Z,2.70
2022-09-03T02:08:49.506Z,2.80
2022-09-03T02:13:56.016Z,2.63
2022-09-03T02:19:05.640Z,2.77
2022-09-03T02:24:09.420Z,2.70
2022-09-03T02:29:15.421Z,2.50
2022-09-03T02:34:17.843Z,2.40
2022-09-03T02:39:20.280Z,2.70
2022-09-03T02:44:30.781Z,3.17
2022-09-03T02:49:33.744Z,2.90
2022-09-03T02:54:39.787Z,3.10
2022-09-03T02:59:44.583Z,2.90
2022-09-03T03:04:46.956Z,3.57
2022-09-03T03:09:49.317Z,3.50
2022-09-03T03:14:51.640Z,3.33
2022-09-03T03:19:54.891Z,3.20
2022-09-03T03:24:57.770Z,3.37
2022-09-03T03:30:00.133Z,3.60
2022-09-03T03:35:02.675Z,3.50
2022-09-03T03:40:05.543Z,3.50
2022-09-03T03:45:10.309Z,3.47
2022-09-03T03:50:12.664Z,3.60
2022-09-03T03:55:15.920Z,3.53
2022-09-03T04:00:18.648Z,3.43
2022-09-03T04:05:22.986Z,3.73
2022-09-03T04:10:25.597Z,3.50
2022-09-03T04:15:27.971Z,3.50
2022-09-03T04:20:30.973Z,3.97
2022-09-03T04:25:33.672Z,3.40
2022-09-03T04:30:37.681Z,3.30
2022-09-03T04:35:41.077Z,3.60
2022-09-03T04:40:43.999Z,3.60
2022-09-03T04:45:46.410Z,3.40
2022-09-03T04:50:48.847Z,3.13
2022-09-03T04:55:51.231Z,3.43
2022-09-03T05:00:54.242Z,3.10
2022-09-03T05:05:57.107Z,3.07
2022-09-03T05:11:00.828Z,3.17
2022-09-03T05:16:06.495Z,3.00
2022-09-03T05:21:14.751Z,3.13
2022-09-03T05:26:22.931Z,3.00
2022-09-03T05:31:28.315Z,3.17
2022-09-03T05:36:34.837Z,2.67
2022-09-03T05:41:37.198Z,2.57
2022-09-03T05:46:39.550Z,2.40
2022-09-03T05:51:42.619Z,2.40
2022-09-03T05:56:44.991Z,1.87
2022-09-03T06:01:50.978Z,2.13
2022-09-03T06:06:54.072Z,2.00
2022-09-03T06:11:57.328Z,1.93
2022-09-03T06:17:01.042Z,1.70
2022-09-03T06:22:03.404Z,1.77
2022-09-03T06:27:05.826Z,1.70
2022-09-03T06:32:08.372Z,1.90
2022-09-03T06:37:10.715Z,1.70
2022-09-03T06:42:13.422Z,1.50
2022-09-03T06:47:17.667Z,1.30
2022-09-03T06:52:20.000Z,1.67
2022-09-03T06:57:22.346Z,1.73
2022-09-03T07:02:25.591Z,1.50
2022-09-03T07:07:27.932Z,1.37
2022-09-03T07:12:30.409Z,1.60
2022-09-03T07:17:32.808Z,1.40
2022-09-03T07:22:35.123Z,1.67
2022-09-03T07:27:37.643Z,1.30
2022-09-03T07:32:40.974Z,1.30
2022-09-03T07:37:43.904Z,1.40
2022-09-03T07:42:50.978Z,1.10
2022-09-03T07:47:56.496Z,1.20
2022-09-03T07:52:59.307Z,1.50
2022-09-03T07:58:01.635Z,1.00
2022-09-03T08:03:08.325Z,1.20
2022-09-03T08:08:10.953Z,1.27
2022-09-03T08:13:17.932Z,1.10
2022-09-03T08:18:20.289Z,1.20
2022-09-03T08:23:23.949Z,1.43
2022-09-03T08:28:27.168Z,1.10
2022-09-03T08:33:38.518Z,1.00
2022-09-03T08:38:43.577Z,1.00
2022-09-03T08:44:23.608Z,1.00
2022-09-03T08:49:42.842Z,0.90
2022-09-03T08:54:46.510Z,3.17
2022-09-03T08:59:56.146Z,1.00
2022-09-03T09:05:17.395Z,0.93
2022-09-03T09:10:37.962Z,0.93
2022-09-03T09:15:49.859Z,1.33
2022-09-03T09:20:59.464Z,1.10
2022-09-03T09:26:10.468Z,1.00
2022-09-03T09:31:18.672Z,0.70
2022-09-03T09:36:23.351Z,0.70
2022-09-03T09:41:29.699Z,0.70
2022-09-03T09:46:41.111Z,0.80
2022-09-03T09:51:43.578Z,1.00
2022-09-03T09:56:47.469Z,0.73
2022-09-03T10:01:49.899Z,0.80
2022-09-03T10:07:05.485Z,0.87
2022-09-03T10:12:44.899Z,0.57
2022-09-03T10:18:00.324Z,0.80
2022-09-03T10:23:15.779Z,0.70
2022-09-03T10:28:18.676Z,0.90
2022-09-03T10:33:29.829Z,0.60
2022-09-03T10:38:37.975Z,0.80
2022-09-03T10:44:02.141Z,0.70
2022-09-03T10:49:26.605Z,0.70
2022-09-03T10:54:52.005Z,0.80
2022-09-03T11:00:10.199Z,0.70
2022-09-03T11:05:18.974Z,0.90
2022-09-03T11:10:32.457Z,0.60
2022-09-03T11:15:56.365Z,0.70
2022-09-03T11:21:07.674Z,0.70
2022-09-03T11:26:17.163Z,0.63
2022-09-03T11:31:43.747Z,0.70
2022-09-03T11:36:48.130Z,0.70
2022-09-03T11:42:07.163Z,0.90
2022-09-03T11:47:23.057Z,0.90
2022-09-03T11:52:40.608Z,0.93
2022-09-03T11:57:45.716Z,0.73
2022-09-03T12:02:58.131Z,0.70
2022-09-03T12:08:34.997Z,0.73
2022-09-03T12:14:26.289Z,0.90
2022-09-03T12:19:40.942Z,0.90
2022-09-03T12:24:44.483Z,0.87
2022-09-03T12:29:58.143Z,1.10
2022-09-03T12:35:58.436Z,1.00
2022-09-03T12:46:13.616Z,0.83
2022-09-03T12:56:42.382Z,1.20
2022-09-03T13:01:58.729Z,1.30
2022-09-03T13:07:12.262Z,1.00
2022-09-03T13:12:32.021Z,1.17
2022-09-03T13:17:38.485Z,1.00
2022-09-03T13:22:55.614Z,1.20
2022-09-03T13:28:16.668Z,2.13
2022-09-03T13:33:23.830Z,1.13
2022-09-03T13:38:52.216Z,1.50
2022-09-03T13:44:03.044Z,1.60
2022-09-03T13:49:44.441Z,1.03
2022-09-03T13:54:53.156Z,1.50
2022-09-03T14:00:12.071Z,1.43
2022-09-03T14:05:31.841Z,1.67
2022-09-03T14:11:21.395Z,1.47
2022-09-03T14:16:31.180Z,1.40
2022-09-03T14:22:01.369Z,2.70
2022-09-03T14:27:04.875Z,1.60
2022-09-03T14:32:19.006Z,1.15
2022-09-03T14:37:33.501Z,1.00
2022-09-03T14:42:54.862Z,0.95
2022-09-03T14:48:02.646Z,1.20
2022-09-03T14:53:45.446Z,2.00
2022-09-03T14:59:20.362Z,1.20
2022-09-03T15:05:00.209Z,1.20
2022-09-03T15:10:32.765Z,1.33
2022-09-03T15:15:41.562Z,1.30
2022-09-03T15:21:00.829Z,1.37
2022-09-03T15:26:03.118Z,1.50
2022-09-03T15:31:16.689Z,1.13
2022-09-03T15:36:25.030Z,1.40
2022-09-03T15:42:04.068Z,1.10
2022-09-03T15:47:30.162Z,1.10
2022-09-03T15:53:04.979Z,1.27
2022-09-03T15:58:33.044Z,1.07
2022-09-03T16:03:50.132Z,1.00
2022-09-03T16:08:58.563Z,1.10
2022-09-03T16:14:16.096Z,1.50
2022-09-03T16:19:28.060Z,1.70
2022-09-03T16:24:56.280Z,1.40
2022-09-03T16:30:10.373Z,2.80
2022-09-03T16:35:35.615Z,2.50
2022-09-03T16:40:49.659Z,1.80
2022-09-03T16:46:15.047Z,1.50
2022-09-03T16:52:00.693Z,1.70
2022-09-03T16:57:29.868Z,1.70
2022-09-03T17:03:03.791Z,1.70
2022-09-03T17:08:14.447Z,1.50
2022-09-03T17:13:17.180Z,1.03
2022-09-03T17:18:34.307Z,1.20
2022-09-03T17:23:38.112Z,1.13
2022-09-03T17:28:49.153Z,1.30
2022-09-03T17:34:12.254Z,1.53
2022-09-03T17:39:17.521Z,1.20
2022-09-03T17:44:38.694Z,1.50
2022-09-03T17:49:52.121Z,1.73
2022-09-03T17:55:02.178Z,1.53
2022-09-03T18:00:10.522Z,1.50
2022-09-03T18:05:29.144Z,1.50
2022-09-03T18:10:37.389Z,1.70
2022-09-03T18:16:13.489Z,1.90
2022-09-03T18:21:43.458Z,1.50
2022-09-03T18:27:20.314Z,1.60
2022-09-03T18:32:41.652Z,1.90
2022-09-03T18:38:02.616Z,1.60
2022-09-03T18:43:23.555Z,1.50
2022-09-03T18:49:01.425Z,1.50
2022-09-03T18:55:08.754Z,1.70
2022-09-03T19:00:33.021Z,1.90
2022-09-03T19:05:56.879Z,2.50
2022-09-03T19:11:29.408Z,2.70
2022-09-03T19:17:19.837Z,2.30
2022-09-03T19:22:52.580Z,2.13
2022-09-03T19:28:32.536Z,2.17
2022-09-03T19:34:09.615Z,1.80
2022-09-03T19:39:45.647Z,1.80
2022-09-03T19:45:35.923Z,1.20
2022-09-03T19:51:03.654Z,1.40
2022-09-03T19:56:31.143Z,1.40
2022-09-03T20:01:55.343Z,1.50
2022-09-03T20:07:23.306Z,1.40
2022-09-03T20:12:29.435Z,1.30
2022-09-03T20:17:42.048Z,1.20
2022-09-03T20:23:04.303Z,1.10
2022-09-03T20:28:25.256Z,1.50
2022-09-03T20:33:36.903Z,1.83
2022-09-03T20:38:48.085Z,1.30
2022-09-03T20:44:47.313Z,1.00
2022-09-03T20:50:04.287Z,1.20
2022-09-03T20:55:17.602Z,1.17
2022-09-03T21:00:23.313Z,1.43
2022-09-03T21:05:43.534Z,0.97
2022-09-03T21:10:58.382Z,1.10
2022-09-03T21:16:20.211Z,1.00
2022-09-03T21:21:49.885Z,1.10
2022-09-03T21:27:00.401Z,1.03
2022-09-03T21:32:17.428Z,1.20
2022-09-03T21:37:22.607Z,1.20
2022-09-03T21:42:34.275Z,1.27
2022-09-03T21:47:43.741Z,1.00
2022-09-03T21:53:01.915Z,1.63
2022-09-03T21:58:35.172Z,1.00
2022-09-03T22:03:37.570Z,1.00
2022-09-03T22:08:59.032Z,1.20
2022-09-03T22:14:12.848Z,1.17
2022-09-03T22:19:15.613Z,1.20
2022-09-03T22:24:25.235Z,1.20
2022-09-03T22:29:39.502Z,1.40
2022-09-03T22:35:03.656Z,1.40
2022-09-03T22:40:38.339Z,1.37
2022-09-03T22:46:06.083Z,1.50
2022-09-03T22:51:09.302Z,1.20
2022-09-03T22:56:15.123Z,1.17
2022-09-03T23:01:30.754Z,1.00
2022-09-03T23:06:39.634Z,0.97
2022-09-03T23:12:06.743Z,1.17
2022-09-03T23:17:14.534Z,1.20
2022-09-03T23:22:25.276Z,1.03
2022-09-03T23:27:39.999Z,1.13
2022-09-03T23:32:43.874Z,1.00
2022-09-03T23:38:11.514Z,1.20
2022-09-03T23:43:39.041Z,0.93
2022-09-03T23:49:09.711Z,1.30
2022-09-03T23:54:38.027Z,1.20
